Latest Coastal Weather Observations for Friendly Beaches

IDT60701

Issued at 7:52 pm EST Saturday 30 May 2020 (issued every 10 minutes, with the page automatically refreshed every 10 minutes)

About coastal observations | Map of coastal stations | Coastal observations for TAS | Marine services | Other Formats
Station Details ID: 092114 Name: FRIENDLY BEACHES Lat: -42.00 Lon: 148.28 Height: 55.0 m
Data from the previous 72 hours. | See also: Recent months at Friendly Beaches
Date/Time
EST
Wind Sea
Height
m
Swell Vis
km
Cloud Weather Temp
°C
Press
hPa
Rain since
9am
mm
Dir  Spd
kts
Gust
kts
Height
m
Period
s
Dir
30/07:30pm NW 3 5 - - - - - - - 12.0 1011.6 0.0
30/07:00pm NNW 10 19 - - - - - - - 13.3 1011.9 0.0
30/06:30pm N 9 16 - - - - - - - 13.1 1012.5 0.0
30/06:00pm N 10 15 - - - - - - - 13.4 1012.9 0.0
30/05:30pm N 10 17 - - - - - - - 13.7 1013.3 0.0
30/05:00pm N 9 17 - - - - - - - 13.9 1013.5 0.0
30/04:30pm N 9 16 - - - - - - - 14.3 1013.7 0.0
30/04:00pm N 9 14 - - - - - - - 15.1 1013.9 0.0
30/03:30pm NNW 11 16 - - - - - - - 15.5 1014.1 0.0
30/03:00pm N 10 15 - - - - - - - 15.7 1014.2 0.0
30/02:30pm N 9 16 - - - - - - - 16.4 1014.7 0.0
30/02:00pm N 7 15 - - - - - - - 16.8 1015.2 0.0
30/01:30pm NNW 5 9 - - - - - - - 17.7 1015.7 0.0
30/01:00pm N 4 8 - - - - - - - 17.6 1016.2 0.0
30/12:30pm NNW 4 11 - - - - - - - 17.4 1016.9 0.0
30/12:00pm NNW 4 9 - - - - - - - 17.3 1017.5 0.0
30/11:30am NNE 4 6 - - - - - - - 16.8 1018.3 0.0
30/11:00am NNE 4 6 - - - - - - - 16.3 1019.0 0.0
30/10:30am NNE 3 5 - - - - - - - 14.9 1019.5 0.0
30/10:00am N 3 5 - - - - - - - 14.2 1019.6 0.0
30/09:30am N 3 5 - - - - - - - 13.8 1019.8 0.0
30/09:00am N 5 7 - - - - - - - 13.7 1019.7 0.0
30/08:30am N 6 9 - - - - - - - 13.1 1019.7 0.0
30/08:00am N 6 8 - - - - - - - 12.6 1019.7 0.0
30/07:30am N 5 8 - - - - - - - 12.1 1019.7 0.0
30/07:00am N 5 7 - - - - - - - 11.8 1019.7 0.0
30/06:30am N 6 9 - - - - - - - 11.6 1019.7 0.0
30/06:00am NNE 6 9 - - - - - - - 11.2 1019.7 0.0
30/05:30am N 6 10 - - - - - - - 11.5 1019.9 0.0
30/05:00am N 5 9 - - - - - - - 12.0 1019.7 0.0
30/04:30am N 8 13 - - - - - - - 12.0 1019.5 0.0
30/04:00am N 6 9 - - - - - - - 11.2 1019.7 0.0
30/03:30am N 5 7 - - - - - - - 10.6 1020.0 0.0
30/03:00am N 5 6 - - - - - - - 11.3 1020.3 0.0
30/02:30am NW 5 9 - - - - - - - 12.4 1020.5 0.0
30/02:00am NW 6 10 - - - - - - - 12.2 1020.5 0.0
30/01:30am NW 6 15 - - - - - - - 12.2 1020.5 0.0
30/01:00am NNW 7 16 - - - - - - - 12.3 1020.7 0.0
30/12:30am WNW 5 11 - - - - - - - 12.0 1021.0 0.0
30/12:00am NNW 4 8 - - - - - - - 11.7 1021.0 0.0
 
Date/Time
EST
Wind Sea
Height
m
Swell Vis
km
Cloud Weather Temp
°C
Press
hPa
Rain since
9am
mm
Dir  Spd
kts
Gust
kts
Height
m
Period
s
Dir
29/11:30pm NW 4 10 - - - - - - - 12.3 1020.9 0.0
29/11:00pm WNW 7 12 - - - - - - - 12.8 1020.9 0.0
29/10:30pm NNW 4 7 - - - - - - - 11.6 1021.2 0.0
29/10:00pm N 3 6 - - - - - - - 11.4 1021.3 0.0
29/09:30pm N 3 7 - - - - - - - 12.1 1021.3 0.0
29/09:00pm NNW 6 11 - - - - - - - 12.9 1021.2 0.0
29/08:30pm NNW 5 8 - - - - - - - 12.5 1021.1 0.0
29/08:00pm NW 5 8 - - - - - - - 12.9 1020.9 0.0
29/07:30pm NNW 3 4 - - - - - - - 12.0 1020.8 0.0
29/07:00pm NNW 5 8 - - - - - - - 12.8 1020.8 0.0
29/06:30pm NW 4 6 - - - - - - - 12.5 1020.9 0.0
29/06:00pm NW 4 6 - - - - - - - 13.2 1021.0 0.0
29/05:30pm NW 3 4 - - - - - - - 13.2 1020.8 0.0
29/05:00pm NNW 3 4 - - - - - - - 13.1 1020.7 0.0
29/04:30pm NNW 3 5 - - - - - - - 14.6 1020.4 0.0
29/04:00pm NNW 7 15 - - - - - - - 16.0 1020.6 0.0
29/03:30pm NNW 6 15 - - - - - - - 16.5 1020.5 0.0
29/03:00pm N 4 6 - - - - - - - 18.5 1020.5 0.0
29/02:30pm N 4 6 - - - - - - - 17.4 1020.4 0.0
29/02:00pm N 5 7 - - - - - - - 17.1 1020.6 0.0
29/01:30pm NNE 4 7 - - - - - - - 17.3 1020.8 0.0
29/01:00pm N 4 7 - - - - - - - 15.8 1021.2 0.0
29/12:30pm N 4 7 - - - - - - - 15.3 1021.2 0.0
29/12:00pm NNW 8 15 - - - - - - - 15.3 1021.5 0.0
29/11:30am NW 11 20 - - - - - - - 14.9 1021.5 0.0
29/11:00am N 6 12 - - - - - - - 14.4 1021.8 0.0
29/10:30am NNW 9 15 - - - - - - - 14.3 1021.7 0.0
29/10:00am NNW 6 11 - - - - - - - 14.1 1021.8 0.0
29/09:30am NNW 4 10 - - - - - - - 14.0 1021.5 0.0
29/09:00am NNW 4 7 - - - - - - - 13.8 1021.5 0.0
29/08:30am NNW 5 9 - - - - - - - 13.8 1021.3 0.0
29/08:00am NW 7 12 - - - - - - - 13.4 1021.0 0.0
29/07:30am NNW 7 12 - - - - - - - 12.8 1020.9 0.0
29/07:00am NNW 5 9 - - - - - - - 12.5 1020.7 0.0
29/06:30am NW 6 10 - - - - - - - 12.6 1020.4 0.0
29/06:00am WNW 5 8 - - - - - - - 12.2 1020.2 0.0
29/05:30am NW 5 9 - - - - - - - 11.6 1020.0 0.0
29/05:00am WNW 6 11 - - - - - - - 11.6 1019.8 0.0
29/04:30am WNW 4 10 - - - - - - - 11.0 1019.8 0.0
29/04:00am NNW 1 3 - - - - - - - 9.8 1019.7 0.0
29/03:30am NNW 2 7 - - - - - - - 10.7 1019.4 0.0
29/03:00am NNE 5 7 - - - - - - - 10.4 1019.4 0.0
29/02:30am N 5 6 - - - - - - - 10.6 1019.3 0.0
29/02:00am N 4 6 - - - - - - - 11.3 1019.2 0.0
29/01:30am NNW 6 9 - - - - - - - 12.0 1019.0 0.0
29/01:00am NW 7 10 - - - - - - - 12.3 1018.9 0.0
29/12:30am NNW 7 14 - - - - - - - 12.5 1018.9 0.0
29/12:00am NNW 7 11 - - - - - - - 12.4 1018.9 0.0
 
Date/Time
EST
Wind Sea
Height
m
Swell Vis
km
Cloud Weather Temp
°C
Press
hPa
Rain since
9am
mm
Dir  Spd
kts
Gust
kts
Height
m
Period
s
Dir
28/11:30pm NNW 7 13 - - - - - - - 12.2 1018.9 0.0
28/11:00pm NNW 6 11 - - - - - - - 11.9 1018.8 0.0
28/10:30pm NW 6 9 - - - - - - - 11.9 1018.6 0.0
28/10:00pm NNW 5 9 - - - - - - - 11.4 1018.7 0.0
28/09:30pm NNW 4 5 - - - - - - - 10.3 1018.5 0.0
28/09:00pm WNW 4 5 - - - - - - - 10.6 1018.6 0.0
28/08:30pm W 3 6 - - - - - - - 10.6 1018.3 0.0
28/08:00pm W 3 7 - - - - - - - 11.7 1018.1 0.0
28/07:30pm WNW 7 12 - - - - - - - 12.3 1017.4 0.0
28/07:00pm WNW 7 12 - - - - - - - 12.5 1017.2 0.0
28/06:30pm WNW 6 9 - - - - - - - 12.6 1017.0 0.0
28/06:00pm WNW 4 7 - - - - - - - 12.5 1016.8 0.0
28/05:30pm WNW 2 6 - - - - - - - 12.6 1016.6 0.0
28/05:00pm WNW 3 5 - - - - - - - 13.1 1016.1 0.0
28/04:30pm W 4 7 - - - - - - - 13.9 1015.9 0.0
28/04:00pm NW 5 9 - - - - - - - 14.8 1015.4 0.0
28/03:30pm NW 7 10 - - - - - - - 15.6 1015.0 0.0
28/03:00pm WNW 6 11 - - - - - - - 16.7 1014.9 0.0
28/02:30pm WNW 5 12 - - - - - - - 17.1 1014.9 0.0
28/02:00pm WNW 6 11 - - - - - - - 16.8 1014.8 0.0
28/01:30pm WNW 10 18 - - - - - - - 16.5 1014.9 0.0
28/01:00pm WNW 13 20 - - - - - - - 16.3 1015.1 0.0
28/12:30pm NW 12 19 - - - - - - - 16.4 1015.2 0.0
28/12:00pm WNW 10 16 - - - - - - - 16.2 1015.7 0.0
28/11:30am WNW 8 15 - - - - - - - 16.5 1016.0 0.0
28/11:00am WNW 6 9 - - - - - - - 16.0 1016.4 0.0
28/10:30am NW 4 6 - - - - - - - 15.7 1016.6 0.0
28/10:00am NW 2 4 - - - - - - - 14.4 1016.6 0.0
28/09:30am N 4 6 - - - - - - - 13.7 1016.5 0.0
28/09:00am N 4 6 - - - - - - - 12.7 1016.6 0.0
28/08:30am N 2 3 - - - - - - - 10.3 1016.4 0.0
28/08:00am NW 2 3 - - - - - - - 9.7 1016.3 0.0
28/07:30am N 4 5 - - - - - - - 10.9 1016.2 0.0
28/07:00am N 5 6 - - - - - - - 11.2 1016.0 0.0
28/06:30am N 3 5 - - - - - - - 10.3 1016.1 0.0
28/06:00am NW 2 2 - - - - - - - 11.3 1016.0 0.0
28/05:30am N 4 5 - - - - - - - 11.4 1015.8 0.0
28/05:00am N 2 4 - - - - - - - 10.6 1015.9 0.0
28/04:30am NW 3 4 - - - - - - - 11.1 1015.6 0.0
28/04:00am NW 2 3 - - - - - - - 12.5 1015.7 0.0
28/03:30am N 5 10 - - - - - - - 13.3 1015.4 0.0
28/03:00am N 5 8 - - - - - - - 13.4 1015.8 0.0
28/02:30am N 6 10 - - - - - - - 13.5 1016.1 0.0
28/02:00am N 4 8 - - - - - - - 13.5 1016.2 0.0
28/01:30am N 7 15 - - - - - - - 13.9 1016.3 0.0
28/01:00am N 7 12 - - - - - - - 14.2 1016.5 0.0
28/12:30am N 8 13 - - - - - - - 13.8 1016.6 0.0
28/12:00am N 7 12 - - - - - - - 13.6 1016.9 0.0
 
Date/Time
EST
Wind Sea
Height
m
Swell Vis
km
Cloud Weather Temp
°C
Press
hPa
Rain since
9am
mm
Dir  Spd
kts
Gust
kts
Height
m
Period
s
Dir
27/11:30pm N 7 11 - - - - - - - 13.6 1016.8 0.0
27/11:00pm N 8 13 - - - - - - - 13.5 1016.8 0.0
27/10:30pm N 6 11 - - - - - - - 12.8 1016.9 0.0
27/10:00pm NNE 7 10 - - - - - - - 13.0 1017.2 0.0
27/09:30pm N 6 11 - - - - - - - 13.5 1017.2 0.0
27/09:00pm N 7 10 - - - - - - - 13.6 1017.4 0.0
27/08:30pm N 8 12 - - - - - - - 13.7 1017.5 0.0
27/08:00pm N 7 11 - - - - - - - 13.5 1017.6 0.0

Other formats

Comma delimited format used in spreadsheet applications
http://www.bom.gov.au/fwo/IDT60701/IDT60701.94987.axf

JavaScript Object Notation format (JSON) in row-major order
http://www.bom.gov.au/fwo/IDT60701/IDT60701.94987.json

Data quality

Most of these data are generated automatically and are frequently updated. Quality checks on data are not normally performed. It is possible for incorrect values to appear. Refer to information at About Latest Weather Observations and please check the disclaimer before using these data.